Forside
METAR-TAF:

METAR-TAF

Lufthavne :

Hagi, Japan

Breddekreds: 34-40N, længdekreds: 131-48E, højde: 54 m

Aktuelle vejr

Denne rapport blev lavet for 7 timer og 33 minutter siden, kl. 10:00 UTC
Vind stille
Temperatur 13°C
Fugtighed 67%
Tryk 1018 hPa
Sigt 10 km eller mere
ingen skyer under 1500m og ingen cumulonimbus

METAR: RJOW 031000Z 00000KT CAVOK 13/07 Q1018

Tid: 02:33 (17:33 UTC)


TAF: fraværende

Vejrobservationer og prognoser fra mere end 4000 lufthavne (METAR og TAF).

De gule og røde prikker repræsenterer de meteorologiske stationer.

Flyt musen over at se navnet på stationen.

Så klik over at se vejr observationer og prognoser.

At skifte det kort: Klik på de grønne knapper med et sort kors for at zoome ind; på den grønne knap med en bindestreg for at zoome ud; eller på de grønne pile for tilstødende kort.


METAR-TAF: